sensor_id;sensor_type;location;lat;lon;timestamp;P1;durP1;ratioP1;P2;durP2;ratioP2
23745;SDS011;12053;48.878;9.632;2023-07-30T00:00:55;5.47;;;3.83;;
23745;SDS011;12053;48.878;9.632;2023-07-30T00:03:23;5.70;;;3.72;;
23745;SDS011;12053;48.878;9.632;2023-07-30T00:05:53;6.60;;;3.78;;
23745;SDS011;12053;48.878;9.632;2023-07-30T00:08:21;4.78;;;2.92;;
23745;SDS011;12053;48.878;9.632;2023-07-30T00:10:48;2.42;;;2.22;;
23745;SDS011;12053;48.878;9.632;2023-07-30T00:13:15;2.60;;;2.40;;
23745;SDS011;12053;48.878;9.632;2023-07-30T00:15:45;2.70;;;2.50;;
23745;SDS011;12053;48.878;9.632;2023-07-30T00:18:13;2.85;;;2.55;;
23745;SDS011;12053;48.878;9.632;2023-07-30T00:20:40;2.88;;;2.50;;
23745;SDS011;12053;48.878;9.632;2023-07-30T00:23:07;2.38;;;2.13;;
23745;SDS011;12053;48.878;9.632;2023-07-30T00:25:35;2.85;;;2.15;;
23745;SDS011;12053;48.878;9.632;2023-07-30T00:28:02;2.42;;;2.20;;
23745;SDS011;12053;48.878;9.632;2023-07-30T00:30:29;2.10;;;1.88;;
23745;SDS011;12053;48.878;9.632;2023-07-30T00:32:56;2.33;;;1.88;;
23745;SDS011;12053;48.878;9.632;2023-07-30T00:35:24;2.88;;;2.20;;
23745;SDS011;12053;48.878;9.632;2023-07-30T00:37:51;2.00;;;1.80;;
23745;SDS011;12053;48.878;9.632;2023-07-30T00:40:18;2.85;;;1.88;;
23745;SDS011;12053;48.878;9.632;2023-07-30T00:42:45;3.38;;;1.80;;
23745;SDS011;12053;48.878;9.632;2023-07-30T00:45:12;2.15;;;1.90;;
23745;SDS011;12053;48.878;9.632;2023-07-30T00:47:39;2.20;;;1.90;;
23745;SDS011;12053;48.878;9.632;2023-07-30T00:50:07;1.83;;;1.73;;
23745;SDS011;12053;48.878;9.632;2023-07-30T00:52:35;3.30;;;1.85;;
23745;SDS011;12053;48.878;9.632;2023-07-30T00:55:02;3.92;;;2.10;;
23745;SDS011;12053;48.878;9.632;2023-07-30T00:57:29;2.70;;;2.50;;
23745;SDS011;12053;48.878;9.632;2023-07-30T00:59:58;2.35;;;2.00;;
23745;SDS011;12053;48.878;9.632;2023-07-30T01:02:25;2.25;;;2.05;;
23745;SDS011;12053;48.878;9.632;2023-07-30T01:04:53;2.33;;;2.13;;
23745;SDS011;12053;48.878;9.632;2023-07-30T01:07:20;2.35;;;2.13;;
23745;SDS011;12053;48.878;9.632;2023-07-30T01:09:48;1.80;;;1.70;;
23745;SDS011;12053;48.878;9.632;2023-07-30T01:12:15;1.75;;;1.65;;
23745;SDS011;12053;48.878;9.632;2023-07-30T01:14:42;2.83;;;2.00;;
23745;SDS011;12053;48.878;9.632;2023-07-30T01:17:11;3.50;;;2.22;;
23745;SDS011;12053;48.878;9.632;2023-07-30T01:19:38;2.47;;;1.60;;
23745;SDS011;12053;48.878;9.632;2023-07-30T01:22:05;2.92;;;2.15;;
23745;SDS011;12053;48.878;9.632;2023-07-30T01:24:32;2.55;;;2.35;;
23745;SDS011;12053;48.878;9.632;2023-07-30T01:27:04;1.92;;;1.83;;
23745;SDS011;12053;48.878;9.632;2023-07-30T01:32:01;2.17;;;1.90;;
23745;SDS011;12053;48.878;9.632;2023-07-30T01:34:29;2.30;;;2.10;;
23745;SDS011;12053;48.878;9.632;2023-07-30T01:36:57;3.60;;;1.80;;
23745;SDS011;12053;48.878;9.632;2023-07-30T01:39:24;2.33;;;1.70;;
23745;SDS011;12053;48.878;9.632;2023-07-30T01:41:55;2.17;;;1.92;;
23745;SDS011;12053;48.878;9.632;2023-07-30T01:44:22;4.22;;;2.03;;
23745;SDS011;12053;48.878;9.632;2023-07-30T01:46:49;3.00;;;2.15;;
23745;SDS011;12053;48.878;9.632;2023-07-30T01:49:16;2.30;;;2.10;;
23745;SDS011;12053;48.878;9.632;2023-07-30T01:51:43;2.63;;;2.30;;
23745;SDS011;12053;48.878;9.632;2023-07-30T01:54:10;2.75;;;2.47;;
23745;SDS011;12053;48.878;9.632;2023-07-30T01:56:38;2.90;;;2.60;;
23745;SDS011;12053;48.878;9.632;2023-07-30T01:59:05;3.88;;;2.90;;
23745;SDS011;12053;48.878;9.632;2023-07-30T02:01:33;4.00;;;2.92;;
23745;SDS011;12053;48.878;9.632;2023-07-30T02:04:00;4.68;;;2.90;;
23745;SDS011;12053;48.878;9.632;2023-07-30T02:06:27;5.55;;;3.47;;
23745;SDS011;12053;48.878;9.632;2023-07-30T02:08:54;5.28;;;3.80;;
23745;SDS011;12053;48.878;9.632;2023-07-30T02:11:21;4.97;;;4.00;;
23745;SDS011;12053;48.878;9.632;2023-07-30T02:13:48;4.80;;;4.20;;
23745;SDS011;12053;48.878;9.632;2023-07-30T02:16:16;6.30;;;4.40;;
23745;SDS011;12053;48.878;9.632;2023-07-30T02:18:43;5.32;;;4.22;;
23745;SDS011;12053;48.878;9.632;2023-07-30T02:21:10;4.80;;;4.30;;
23745;SDS011;12053;48.878;9.632;2023-07-30T02:23:37;7.90;;;4.88;;
23745;SDS011;12053;48.878;9.632;2023-07-30T02:26:04;5.13;;;4.63;;
23745;SDS011;12053;48.878;9.632;2023-07-30T02:28:32;6.10;;;4.65;;
23745;SDS011;12053;48.878;9.632;2023-07-30T02:30:59;6.05;;;4.65;;
23745;SDS011;12053;48.878;9.632;2023-07-30T02:33:26;5.72;;;5.18;;
23745;SDS011;12053;48.878;9.632;2023-07-30T02:35:53;6.57;;;4.90;;
23745;SDS011;12053;48.878;9.632;2023-07-30T02:38:20;6.00;;;5.18;;
23745;SDS011;12053;48.878;9.632;2023-07-30T02:40:47;6.38;;;4.75;;
23745;SDS011;12053;48.878;9.632;2023-07-30T02:43:15;5.68;;;4.80;;
23745;SDS011;12053;48.878;9.632;2023-07-30T02:45:42;7.32;;;5.13;;
23745;SDS011;12053;48.878;9.632;2023-07-30T02:48:09;5.40;;;4.72;;
23745;SDS011;12053;48.878;9.632;2023-07-30T02:50:36;5.22;;;4.70;;
23745;SDS011;12053;48.878;9.632;2023-07-30T02:53:03;6.10;;;4.65;;
23745;SDS011;12053;48.878;9.632;2023-07-30T02:55:30;5.95;;;5.13;;
23745;SDS011;12053;48.878;9.632;2023-07-30T02:57:58;5.72;;;4.72;;
23745;SDS011;12053;48.878;9.632;2023-07-30T03:00:25;6.57;;;5.63;;
23745;SDS011;12053;48.878;9.632;2023-07-30T03:02:52;8.40;;;5.53;;
23745;SDS011;12053;48.878;9.632;2023-07-30T03:05:19;6.28;;;5.68;;
23745;SDS011;12053;48.878;9.632;2023-07-30T03:07:46;6.60;;;5.93;;
23745;SDS011;12053;48.878;9.632;2023-07-30T03:10:14;8.30;;;5.85;;
23745;SDS011;12053;48.878;9.632;2023-07-30T03:12:41;8.90;;;6.35;;
23745;SDS011;12053;48.878;9.632;2023-07-30T03:15:08;6.85;;;6.13;;
23745;SDS011;12053;48.878;9.632;2023-07-30T03:17:35;7.63;;;5.68;;
23745;SDS011;12053;48.878;9.632;2023-07-30T03:20:02;8.30;;;6.75;;
23745;SDS011;12053;48.878;9.632;2023-07-30T03:22:30;7.75;;;6.95;;
23745;SDS011;12053;48.878;9.632;2023-07-30T03:24:57;7.63;;;6.47;;
23745;SDS011;12053;48.878;9.632;2023-07-30T03:27:24;8.10;;;6.00;;
23745;SDS011;12053;48.878;9.632;2023-07-30T03:29:52;6.57;;;5.95;;
23745;SDS011;12053;48.878;9.632;2023-07-30T03:32:19;7.20;;;6.50;;
23745;SDS011;12053;48.878;9.632;2023-07-30T03:34:46;8.43;;;6.75;;
23745;SDS011;12053;48.878;9.632;2023-07-30T03:37:13;8.65;;;6.65;;
23745;SDS011;12053;48.878;9.632;2023-07-30T03:39:40;10.02;;;7.10;;
23745;SDS011;12053;48.878;9.632;2023-07-30T03:42:07;8.00;;;6.75;;
23745;SDS011;12053;48.878;9.632;2023-07-30T03:44:35;8.43;;;6.93;;
23745;SDS011;12053;48.878;9.632;2023-07-30T03:47:02;7.90;;;6.55;;
23745;SDS011;12053;48.878;9.632;2023-07-30T03:49:29;8.30;;;7.07;;
23745;SDS011;12053;48.878;9.632;2023-07-30T03:51:56;9.25;;;7.05;;
23745;SDS011;12053;48.878;9.632;2023-07-30T03:54:23;9.63;;;6.85;;
23745;SDS011;12053;48.878;9.632;2023-07-30T03:56:51;7.57;;;6.57;;
23745;SDS011;12053;48.878;9.632;2023-07-30T03:59:18;9.18;;;7.03;;
23745;SDS011;12053;48.878;9.632;2023-07-30T04:01:45;6.38;;;5.78;;
23745;SDS011;12053;48.878;9.632;2023-07-30T04:04:12;9.35;;;6.35;;
23745;SDS011;12053;48.878;9.632;2023-07-30T04:06:39;5.93;;;5.32;;
23745;SDS011;12053;48.878;9.632;2023-07-30T04:09:06;5.93;;;5.32;;
23745;SDS011;12053;48.878;9.632;2023-07-30T04:11:34;7.75;;;5.47;;
23745;SDS011;12053;48.878;9.632;2023-07-30T04:14:02;10.63;;;5.82;;
23745;SDS011;12053;48.878;9.632;2023-07-30T04:16:31;6.10;;;5.47;;
23745;SDS011;12053;48.878;9.632;2023-07-30T04:18:58;5.78;;;5.13;;
23745;SDS011;12053;48.878;9.632;2023-07-30T04:21:25;7.13;;;5.03;;
23745;SDS011;12053;48.878;9.632;2023-07-30T04:23:52;5.70;;;5.20;;
23745;SDS011;12053;48.878;9.632;2023-07-30T04:26:19;8.60;;;5.38;;
23745;SDS011;12053;48.878;9.632;2023-07-30T04:28:47;6.53;;;5.03;;
23745;SDS011;12053;48.878;9.632;2023-07-30T04:31:14;5.85;;;4.53;;
23745;SDS011;12053;48.878;9.632;2023-07-30T04:33:41;6.63;;;4.60;;
23745;SDS011;12053;48.878;9.632;2023-07-30T04:36:08;6.72;;;4.78;;
23745;SDS011;12053;48.878;9.632;2023-07-30T04:38:35;5.47;;;4.22;;
23745;SDS011;12053;48.878;9.632;2023-07-30T04:41:02;4.68;;;4.22;;
23745;SDS011;12053;48.878;9.632;2023-07-30T04:43:30;4.80;;;4.30;;
23745;SDS011;12053;48.878;9.632;2023-07-30T04:45:57;6.30;;;4.13;;
23745;SDS011;12053;48.878;9.632;2023-07-30T04:48:24;6.03;;;4.47;;
23745;SDS011;12053;48.878;9.632;2023-07-30T04:50:51;7.35;;;4.22;;
23745;SDS011;12053;48.878;9.632;2023-07-30T04:53:18;5.93;;;4.32;;
23745;SDS011;12053;48.878;9.632;2023-07-30T04:55:46;4.68;;;4.18;;
23745;SDS011;12053;48.878;9.632;2023-07-30T04:58:14;5.60;;;4.00;;
23745;SDS011;12053;48.878;9.632;2023-07-30T05:00:41;5.25;;;4.32;;
23745;SDS011;12053;48.878;9.632;2023-07-30T05:03:08;5.95;;;4.05;;
23745;SDS011;12053;48.878;9.632;2023-07-30T05:05:37;6.70;;;4.68;;
23745;SDS011;12053;48.878;9.632;2023-07-30T05:08:04;5.32;;;4.53;;
23745;SDS011;12053;48.878;9.632;2023-07-30T05:10:31;6.40;;;4.57;;
23745;SDS011;12053;48.878;9.632;2023-07-30T05:12:58;5.53;;;4.53;;
23745;SDS011;12053;48.878;9.632;2023-07-30T05:15:25;5.15;;;4.47;;
23745;SDS011;12053;48.878;9.632;2023-07-30T05:17:53;6.43;;;4.43;;
23745;SDS011;12053;48.878;9.632;2023-07-30T05:20:20;6.53;;;4.72;;
23745;SDS011;12053;48.878;9.632;2023-07-30T05:22:47;4.90;;;4.35;;
23745;SDS011;12053;48.878;9.632;2023-07-30T05:25:14;4.72;;;4.22;;
23745;SDS011;12053;48.878;9.632;2023-07-30T05:27:42;6.32;;;4.65;;
23745;SDS011;12053;48.878;9.632;2023-07-30T05:30:09;6.10;;;4.90;;
23745;SDS011;12053;48.878;9.632;2023-07-30T05:32:36;7.57;;;4.57;;
23745;SDS011;12053;48.878;9.632;2023-07-30T05:35:03;6.03;;;4.72;;
23745;SDS011;12053;48.878;9.632;2023-07-30T05:37:31;5.65;;;5.15;;
23745;SDS011;12053;48.878;9.632;2023-07-30T05:39:58;5.93;;;5.13;;
23745;SDS011;12053;48.878;9.632;2023-07-30T05:42:25;8.98;;;5.32;;
23745;SDS011;12053;48.878;9.632;2023-07-30T05:44:52;5.90;;;4.47;;
23745;SDS011;12053;48.878;9.632;2023-07-30T05:47:19;6.40;;;4.80;;
23745;SDS011;12053;48.878;9.632;2023-07-30T05:49:47;4.75;;;4.35;;
23745;SDS011;12053;48.878;9.632;2023-07-30T05:52:14;6.15;;;5.13;;
23745;SDS011;12053;48.878;9.632;2023-07-30T05:54:41;5.72;;;4.78;;
23745;SDS011;12053;48.878;9.632;2023-07-30T05:57:08;5.68;;;4.60;;
23745;SDS011;12053;48.878;9.632;2023-07-30T05:59:35;6.43;;;4.68;;
23745;SDS011;12053;48.878;9.632;2023-07-30T06:02:03;4.80;;;4.30;;
23745;SDS011;12053;48.878;9.632;2023-07-30T06:04:30;3.60;;;3.30;;
23745;SDS011;12053;48.878;9.632;2023-07-30T06:06:59;3.85;;;3.38;;
23745;SDS011;12053;48.878;9.632;2023-07-30T06:09:26;3.30;;;3.00;;
23745;SDS011;12053;48.878;9.632;2023-07-30T06:11:55;3.05;;;2.58;;
23745;SDS011;12053;48.878;9.632;2023-07-30T06:14:23;3.20;;;2.90;;
23745;SDS011;12053;48.878;9.632;2023-07-30T06:16:50;3.53;;;2.85;;
23745;SDS011;12053;48.878;9.632;2023-07-30T06:19:18;2.83;;;2.63;;
23745;SDS011;12053;48.878;9.632;2023-07-30T06:21:45;3.00;;;2.33;;
23745;SDS011;12053;48.878;9.632;2023-07-30T06:24:12;2.63;;;2.42;;
23745;SDS011;12053;48.878;9.632;2023-07-30T06:26:39;2.08;;;1.92;;
23745;SDS011;12053;48.878;9.632;2023-07-30T06:29:07;3.38;;;2.53;;
23745;SDS011;12053;48.878;9.632;2023-07-30T06:31:34;3.00;;;1.75;;
23745;SDS011;12053;48.878;9.632;2023-07-30T06:34:02;1.83;;;1.70;;
23745;SDS011;12053;48.878;9.632;2023-07-30T06:36:29;2.03;;;1.73;;
23745;SDS011;12053;48.878;9.632;2023-07-30T06:38:56;1.83;;;1.65;;
23745;SDS011;12053;48.878;9.632;2023-07-30T06:41:23;2.63;;;2.22;;
23745;SDS011;12053;48.878;9.632;2023-07-30T06:43:50;2.20;;;2.00;;
23745;SDS011;12053;48.878;9.632;2023-07-30T06:46:17;1.90;;;1.80;;
23745;SDS011;12053;48.878;9.632;2023-07-30T06:48:44;2.00;;;1.60;;
23745;SDS011;12053;48.878;9.632;2023-07-30T06:51:12;1.95;;;1.73;;
23745;SDS011;12053;48.878;9.632;2023-07-30T06:53:40;3.22;;;2.10;;
23745;SDS011;12053;48.878;9.632;2023-07-30T06:56:07;2.10;;;1.85;;
23745;SDS011;12053;48.878;9.632;2023-07-30T06:58:34;2.33;;;1.50;;
23745;SDS011;12053;48.878;9.632;2023-07-30T07:01:04;2.22;;;1.77;;
23745;SDS011;12053;48.878;9.632;2023-07-30T07:03:31;1.70;;;1.40;;
23745;SDS011;12053;48.878;9.632;2023-07-30T07:05:59;1.45;;;1.35;;
23745;SDS011;12053;48.878;9.632;2023-07-30T07:08:26;2.53;;;1.73;;
23745;SDS011;12053;48.878;9.632;2023-07-30T07:10:53;1.48;;;1.30;;
23745;SDS011;12053;48.878;9.632;2023-07-30T07:13:20;1.92;;;1.25;;
23745;SDS011;12053;48.878;9.632;2023-07-30T07:15:48;2.28;;;1.55;;
23745;SDS011;12053;48.878;9.632;2023-07-30T07:18:15;1.50;;;1.40;;
23745;SDS011;12053;48.878;9.632;2023-07-30T07:20:42;1.67;;;1.23;;
23745;SDS011;12053;48.878;9.632;2023-07-30T07:23:09;1.23;;;1.13;;
23745;SDS011;12053;48.878;9.632;2023-07-30T07:25:39;1.48;;;1.20;;
23745;SDS011;12053;48.878;9.632;2023-07-30T07:28:06;1.33;;;1.23;;
23745;SDS011;12053;48.878;9.632;2023-07-30T07:30:36;1.20;;;1.10;;
23745;SDS011;12053;48.878;9.632;2023-07-30T07:33:03;2.08;;;1.45;;
23745;SDS011;12053;48.878;9.632;2023-07-30T07:35:32;1.02;;;1.00;;
23745;SDS011;12053;48.878;9.632;2023-07-30T07:37:59;1.50;;;1.08;;
23745;SDS011;12053;48.878;9.632;2023-07-30T07:40:27;4.25;;;1.20;;
23745;SDS011;12053;48.878;9.632;2023-07-30T07:42:55;2.13;;;1.15;;
23745;SDS011;12053;48.878;9.632;2023-07-30T07:45:22;1.35;;;1.20;;
23745;SDS011;12053;48.878;9.632;2023-07-30T07:47:49;1.30;;;1.20;;
23745;SDS011;12053;48.878;9.632;2023-07-30T07:50:16;2.08;;;1.30;;
23745;SDS011;12053;48.878;9.632;2023-07-30T07:52:44;1.48;;;1.38;;
23745;SDS011;12053;48.878;9.632;2023-07-30T07:55:11;2.40;;;1.52;;
23745;SDS011;12053;48.878;9.632;2023-07-30T07:57:38;5.22;;;2.40;;
23745;SDS011;12053;48.878;9.632;2023-07-30T08:00:06;2.50;;;2.30;;
23745;SDS011;12053;48.878;9.632;2023-07-30T08:02:33;1.80;;;1.67;;
23745;SDS011;12053;48.878;9.632;2023-07-30T08:05:00;2.90;;;1.90;;
23745;SDS011;12053;48.878;9.632;2023-07-30T08:07:29;3.67;;;1.95;;
23745;SDS011;12053;48.878;9.632;2023-07-30T08:09:56;2.00;;;1.90;;
23745;SDS011;12053;48.878;9.632;2023-07-30T08:12:23;3.88;;;1.80;;
23745;SDS011;12053;48.878;9.632;2023-07-30T08:14:50;2.10;;;2.00;;
23745;SDS011;12053;48.878;9.632;2023-07-30T08:17:18;3.72;;;2.15;;
23745;SDS011;12053;48.878;9.632;2023-07-30T08:19:47;2.70;;;2.47;;
23745;SDS011;12053;48.878;9.632;2023-07-30T08:22:14;3.30;;;3.00;;
23745;SDS011;12053;48.878;9.632;2023-07-30T08:24:41;2.78;;;2.58;;
23745;SDS011;12053;48.878;9.632;2023-07-30T08:27:08;2.20;;;2.00;;
23745;SDS011;12053;48.878;9.632;2023-07-30T08:29:35;2.20;;;2.00;;
23745;SDS011;12053;48.878;9.632;2023-07-30T08:32:04;2.40;;;2.20;;
23745;SDS011;12053;48.878;9.632;2023-07-30T08:34:32;2.22;;;2.00;;
23745;SDS011;12053;48.878;9.632;2023-07-30T08:36:59;2.72;;;2.28;;
23745;SDS011;12053;48.878;9.632;2023-07-30T08:39:26;2.08;;;1.88;;
23745;SDS011;12053;48.878;9.632;2023-07-30T08:41:53;2.13;;;1.60;;
23745;SDS011;12053;48.878;9.632;2023-07-30T08:44:20;2.90;;;2.20;;
23745;SDS011;12053;48.878;9.632;2023-07-30T08:46:47;3.25;;;2.00;;
23745;SDS011;12053;48.878;9.632;2023-07-30T08:49:15;2.90;;;2.60;;
23745;SDS011;12053;48.878;9.632;2023-07-30T08:51:42;2.70;;;2.17;;
23745;SDS011;12053;48.878;9.632;2023-07-30T08:54:10;3.15;;;2.30;;
23745;SDS011;12053;48.878;9.632;2023-07-30T08:56:37;2.90;;;2.42;;
23745;SDS011;12053;48.878;9.632;2023-07-30T08:59:05;3.25;;;2.42;;
23745;SDS011;12053;48.878;9.632;2023-07-30T09:01:34;2.58;;;2.00;;
23745;SDS011;12053;48.878;9.632;2023-07-30T09:04:02;2.03;;;1.92;;
23745;SDS011;12053;48.878;9.632;2023-07-30T09:06:29;2.38;;;2.00;;
23745;SDS011;12053;48.878;9.632;2023-07-30T09:08:57;3.22;;;2.10;;
23745;SDS011;12053;48.878;9.632;2023-07-30T09:11:27;2.88;;;2.25;;
23745;SDS011;12053;48.878;9.632;2023-07-30T09:13:54;2.67;;;2.05;;
23745;SDS011;12053;48.878;9.632;2023-07-30T09:16:24;2.28;;;2.08;;
23745;SDS011;12053;48.878;9.632;2023-07-30T09:18:51;2.90;;;2.30;;
23745;SDS011;12053;48.878;9.632;2023-07-30T09:21:19;2.25;;;2.05;;
23745;SDS011;12053;48.878;9.632;2023-07-30T09:23:56;2.92;;;1.88;;
23745;SDS011;12053;48.878;9.632;2023-07-30T09:26:24;3.13;;;2.03;;
23745;SDS011;12053;48.878;9.632;2023-07-30T09:28:51;3.53;;;2.00;;
23745;SDS011;12053;48.878;9.632;2023-07-30T09:31:18;4.28;;;2.10;;
23745;SDS011;12053;48.878;9.632;2023-07-30T09:34:01;2.35;;;2.15;;
23745;SDS011;12053;48.878;9.632;2023-07-30T09:36:28;3.13;;;2.10;;
23745;SDS011;12053;48.878;9.632;2023-07-30T09:38:55;3.20;;;1.90;;
23745;SDS011;12053;48.878;9.632;2023-07-30T09:41:22;3.15;;;2.35;;
23745;SDS011;12053;48.878;9.632;2023-07-30T09:43:56;4.13;;;2.13;;
23745;SDS011;12053;48.878;9.632;2023-07-30T09:46:25;2.28;;;2.05;;
23745;SDS011;12053;48.878;9.632;2023-07-30T09:48:56;3.28;;;2.10;;
23745;SDS011;12053;48.878;9.632;2023-07-30T09:51:24;4.35;;;2.17;;
23745;SDS011;12053;48.878;9.632;2023-07-30T09:53:51;2.92;;;2.38;;
23745;SDS011;12053;48.878;9.632;2023-07-30T09:56:18;2.28;;;2.05;;
23745;SDS011;12053;48.878;9.632;2023-07-30T09:58:46;3.70;;;2.10;;
23745;SDS011;12053;48.878;9.632;2023-07-30T10:01:13;2.25;;;2.05;;
23745;SDS011;12053;48.878;9.632;2023-07-30T10:03:40;2.20;;;2.00;;
23745;SDS011;12053;48.878;9.632;2023-07-30T10:06:07;2.65;;;2.20;;
23745;SDS011;12053;48.878;9.632;2023-07-30T10:08:35;2.80;;;2.15;;
23745;SDS011;12053;48.878;9.632;2023-07-30T10:11:05;4.70;;;2.10;;
23745;SDS011;12053;48.878;9.632;2023-07-30T10:13:33;2.67;;;2.00;;
23745;SDS011;12053;48.878;9.632;2023-07-30T10:16:01;2.22;;;1.80;;
23745;SDS011;12053;48.878;9.632;2023-07-30T10:18:47;2.03;;;1.83;;
23745;SDS011;12053;48.878;9.632;2023-07-30T10:21:24;5.22;;;2.20;;
23745;SDS011;12053;48.878;9.632;2023-07-30T10:24:02;2.30;;;1.88;;
23745;SDS011;12053;48.878;9.632;2023-07-30T10:26:33;2.67;;;1.83;;
23745;SDS011;12053;48.878;9.632;2023-07-30T10:31:38;2.33;;;2.13;;
23745;SDS011;12053;48.878;9.632;2023-07-30T10:34:07;3.55;;;2.13;;
23745;SDS011;12053;48.878;9.632;2023-07-30T10:36:47;2.47;;;2.25;;
23745;SDS011;12053;48.878;9.632;2023-07-30T10:39:25;3.00;;;2.40;;
23745;SDS011;12053;48.878;9.632;2023-07-30T10:41:56;2.13;;;1.90;;
23745;SDS011;12053;48.878;9.632;2023-07-30T10:44:28;2.83;;;2.15;;
23745;SDS011;12053;48.878;9.632;2023-07-30T10:46:56;3.40;;;2.00;;
23745;SDS011;12053;48.878;9.632;2023-07-30T10:49:23;3.95;;;2.15;;
23745;SDS011;12053;48.878;9.632;2023-07-30T10:51:51;3.47;;;2.10;;
23745;SDS011;12053;48.878;9.632;2023-07-30T10:54:19;3.65;;;2.10;;
23745;SDS011;12053;48.878;9.632;2023-07-30T10:56:46;2.45;;;1.80;;
23745;SDS011;12053;48.878;9.632;2023-07-30T10:59:13;3.70;;;1.98;;
23745;SDS011;12053;48.878;9.632;2023-07-30T11:01:44;2.40;;;2.03;;
23745;SDS011;12053;48.878;9.632;2023-07-30T11:04:13;2.33;;;2.10;;
23745;SDS011;12053;48.878;9.632;2023-07-30T11:06:44;3.33;;;2.10;;
23745;SDS011;12053;48.878;9.632;2023-07-30T11:09:19;3.95;;;2.13;;
23745;SDS011;12053;48.878;9.632;2023-07-30T11:11:47;2.75;;;2.00;;
23745;SDS011;12053;48.878;9.632;2023-07-30T11:14:18;1.83;;;1.55;;
23745;SDS011;12053;48.878;9.632;2023-07-30T11:19:16;2.55;;;2.05;;
23745;SDS011;12053;48.878;9.632;2023-07-30T11:21:44;2.90;;;1.77;;
23745;SDS011;12053;48.878;9.632;2023-07-30T11:24:14;1.95;;;1.55;;
23745;SDS011;12053;48.878;9.632;2023-07-30T11:26:42;3.50;;;2.15;;
23745;SDS011;12053;48.878;9.632;2023-07-30T11:29:13;2.75;;;1.70;;
23745;SDS011;12053;48.878;9.632;2023-07-30T11:31:42;3.42;;;1.83;;
23745;SDS011;12053;48.878;9.632;2023-07-30T11:34:09;3.63;;;1.70;;
23745;SDS011;12053;48.878;9.632;2023-07-30T11:36:36;4.20;;;1.90;;
23745;SDS011;12053;48.878;9.632;2023-07-30T11:39:03;3.42;;;1.80;;
23745;SDS011;12053;48.878;9.632;2023-07-30T11:41:31;2.15;;;1.95;;
23745;SDS011;12053;48.878;9.632;2023-07-30T11:43:59;4.15;;;2.20;;
23745;SDS011;12053;48.878;9.632;2023-07-30T11:46:26;2.55;;;1.92;;
23745;SDS011;12053;48.878;9.632;2023-07-30T11:48:53;4.25;;;1.90;;
23745;SDS011;12053;48.878;9.632;2023-07-30T11:51:36;2.53;;;2.08;;
23745;SDS011;12053;48.878;9.632;2023-07-30T11:54:04;3.10;;;2.10;;
23745;SDS011;12053;48.878;9.632;2023-07-30T11:56:32;5.15;;;2.40;;
23745;SDS011;12053;48.878;9.632;2023-07-30T11:59:01;1.88;;;1.60;;
23745;SDS011;12053;48.878;9.632;2023-07-30T12:01:30;2.25;;;1.80;;
23745;SDS011;12053;48.878;9.632;2023-07-30T12:03:58;3.60;;;1.85;;
23745;SDS011;12053;48.878;9.632;2023-07-30T12:06:38;3.70;;;1.75;;
23745;SDS011;12053;48.878;9.632;2023-07-30T12:09:15;2.83;;;1.73;;
23745;SDS011;12053;48.878;9.632;2023-07-30T12:11:50;2.53;;;2.05;;
23745;SDS011;12053;48.878;9.632;2023-07-30T12:14:18;2.95;;;1.70;;
23745;SDS011;12053;48.878;9.632;2023-07-30T12:16:45;3.53;;;2.20;;
23745;SDS011;12053;48.878;9.632;2023-07-30T12:19:12;4.97;;;2.10;;
23745;SDS011;12053;48.878;9.632;2023-07-30T12:21:40;4.10;;;1.98;;
23745;SDS011;12053;48.878;9.632;2023-07-30T12:24:07;4.43;;;1.85;;
23745;SDS011;12053;48.878;9.632;2023-07-30T12:26:34;3.75;;;1.83;;
23745;SDS011;12053;48.878;9.632;2023-07-30T12:29:01;2.03;;;1.85;;
23745;SDS011;12053;48.878;9.632;2023-07-30T12:31:29;3.15;;;1.80;;
23745;SDS011;12053;48.878;9.632;2023-07-30T12:33:56;2.20;;;1.80;;
23745;SDS011;12053;48.878;9.632;2023-07-30T12:36:23;3.25;;;1.90;;
23745;SDS011;12053;48.878;9.632;2023-07-30T12:38:51;3.60;;;1.63;;
23745;SDS011;12053;48.878;9.632;2023-07-30T12:41:20;2.70;;;1.95;;
23745;SDS011;12053;48.878;9.632;2023-07-30T12:43:53;1.92;;;1.67;;
23745;SDS011;12053;48.878;9.632;2023-07-30T12:46:22;2.55;;;1.50;;
23745;SDS011;12053;48.878;9.632;2023-07-30T12:48:50;1.98;;;1.63;;
23745;SDS011;12053;48.878;9.632;2023-07-30T12:51:18;8.25;;;2.05;;
23745;SDS011;12053;48.878;9.632;2023-07-30T12:53:45;3.25;;;1.80;;
23745;SDS011;12053;48.878;9.632;2023-07-30T12:56:12;2.08;;;1.73;;
23745;SDS011;12053;48.878;9.632;2023-07-30T12:58:41;1.60;;;1.50;;
23745;SDS011;12053;48.878;9.632;2023-07-30T13:01:08;2.00;;;1.80;;
23745;SDS011;12053;48.878;9.632;2023-07-30T13:03:35;2.30;;;1.42;;
23745;SDS011;12053;48.878;9.632;2023-07-30T13:06:03;2.53;;;1.70;;
23745;SDS011;12053;48.878;9.632;2023-07-30T13:08:30;3.58;;;1.65;;
23745;SDS011;12053;48.878;9.632;2023-07-30T13:10:57;3.00;;;1.90;;
23745;SDS011;12053;48.878;9.632;2023-07-30T13:13:25;2.00;;;1.80;;
23745;SDS011;12053;48.878;9.632;2023-07-30T13:15:52;5.47;;;1.95;;
23745;SDS011;12053;48.878;9.632;2023-07-30T13:18:24;4.45;;;1.70;;
23745;SDS011;12053;48.878;9.632;2023-07-30T13:20:51;4.10;;;1.80;;
23745;SDS011;12053;48.878;9.632;2023-07-30T13:23:18;2.80;;;1.80;;
23745;SDS011;12053;48.878;9.632;2023-07-30T13:25:45;4.05;;;1.63;;
23745;SDS011;12053;48.878;9.632;2023-07-30T13:28:12;2.80;;;1.50;;
23745;SDS011;12053;48.878;9.632;2023-07-30T13:30:40;1.73;;;1.40;;
23745;SDS011;12053;48.878;9.632;2023-07-30T13:33:07;3.15;;;1.83;;
23745;SDS011;12053;48.878;9.632;2023-07-30T13:35:34;1.80;;;1.50;;
23745;SDS011;12053;48.878;9.632;2023-07-30T13:38:01;3.60;;;1.73;;
23745;SDS011;12053;48.878;9.632;2023-07-30T13:40:29;4.50;;;1.70;;
23745;SDS011;12053;48.878;9.632;2023-07-30T13:42:56;4.03;;;1.55;;
23745;SDS011;12053;48.878;9.632;2023-07-30T13:45:23;3.38;;;1.60;;
23745;SDS011;12053;48.878;9.632;2023-07-30T13:47:50;2.97;;;1.50;;
23745;SDS011;12053;48.878;9.632;2023-07-30T13:50:18;3.83;;;1.55;;
23745;SDS011;12053;48.878;9.632;2023-07-30T13:52:45;2.72;;;1.88;;
23745;SDS011;12053;48.878;9.632;2023-07-30T13:55:13;2.72;;;1.20;;
23745;SDS011;12053;48.878;9.632;2023-07-30T13:57:40;3.33;;;1.77;;
23745;SDS011;12053;48.878;9.632;2023-07-30T14:00:07;3.50;;;1.60;;
23745;SDS011;12053;48.878;9.632;2023-07-30T14:02:34;3.58;;;1.42;;
23745;SDS011;12053;48.878;9.632;2023-07-30T14:05:02;2.75;;;1.73;;
23745;SDS011;12053;48.878;9.632;2023-07-30T14:07:29;2.75;;;1.67;;
23745;SDS011;12053;48.878;9.632;2023-07-30T14:09:56;2.35;;;1.55;;
23745;SDS011;12053;48.878;9.632;2023-07-30T14:12:23;3.78;;;1.77;;
23745;SDS011;12053;48.878;9.632;2023-07-30T14:14:51;3.80;;;1.38;;
23745;SDS011;12053;48.878;9.632;2023-07-30T14:17:18;4.70;;;1.88;;
23745;SDS011;12053;48.878;9.632;2023-07-30T14:19:45;2.97;;;1.40;;
23745;SDS011;12053;48.878;9.632;2023-07-30T14:22:12;5.20;;;1.70;;
23745;SDS011;12053;48.878;9.632;2023-07-30T14:24:39;4.07;;;2.03;;
23745;SDS011;12053;48.878;9.632;2023-07-30T14:27:09;3.25;;;1.55;;
23745;SDS011;12053;48.878;9.632;2023-07-30T14:29:36;2.78;;;1.48;;
23745;SDS011;12053;48.878;9.632;2023-07-30T14:32:03;5.50;;;1.48;;
23745;SDS011;12053;48.878;9.632;2023-07-30T14:34:31;5.55;;;1.80;;
23745;SDS011;12053;48.878;9.632;2023-07-30T14:36:58;3.50;;;1.63;;
23745;SDS011;12053;48.878;9.632;2023-07-30T14:39:25;3.25;;;1.50;;
23745;SDS011;12053;48.878;9.632;2023-07-30T14:41:52;2.47;;;1.40;;
23745;SDS011;12053;48.878;9.632;2023-07-30T14:44:19;2.95;;;1.50;;
23745;SDS011;12053;48.878;9.632;2023-07-30T14:46:47;2.95;;;1.60;;
23745;SDS011;12053;48.878;9.632;2023-07-30T14:49:14;2.03;;;1.58;;
23745;SDS011;12053;48.878;9.632;2023-07-30T14:51:41;5.90;;;1.88;;
23745;SDS011;12053;48.878;9.632;2023-07-30T14:54:09;2.13;;;1.42;;
23745;SDS011;12053;48.878;9.632;2023-07-30T14:56:37;3.05;;;1.40;;
23745;SDS011;12053;48.878;9.632;2023-07-30T14:59:05;2.55;;;1.83;;